Time;durP1;ratioP1;P1;durP2;ratioP2;P2;SDS_P1;SDS_P2;PMS_P1;PMS_P2;Temp;Humidity;BMP_temperature;BMP_pressure;BME280_temperature;BME280_humidity;BME280_pressure;Samples;Min_cycle;Max_cycle;Signal;HPM_P1;HPM_P2
2024/02/01 00:01:43;;;;;;;9.87;3.90;;;;;;;-145.69;55.41;52163.19;5136606;27;20200;-80
2024/02/01 00:04:10;;;;;;;9.37;3.57;;;;;;;-145.69;55.22;52208.72;5136230;27;20207;-80
2024/02/01 00:06:38;;;;;;;6.20;3.07;;;;;;;-145.69;55.37;52169.13;5136392;27;20554;-80
2024/02/01 00:09:05;;;;;;;8.73;2.80;;;;;;;-145.69;55.88;52186.94;5132761;27;20658;-79
2024/02/01 00:11:31;;;;;;;9.63;3.00;;;;;;;-145.69;55.77;52194.88;5115860;27;20201;-79
2024/02/01 00:13:58;;;;;;;9.70;3.10;;;;;;;-145.69;56.33;52194.88;5115854;28;20209;-79
2024/02/01 00:16:24;;;;;;;9.20;3.57;;;;;;;-145.69;56.02;52186.94;5115940;28;20217;-80
2024/02/01 00:18:51;;;;;;;11.20;2.93;;;;;;;-145.69;56.03;52204.75;5115883;28;20205;-80
2024/02/01 00:21:18;;;;;;;8.87;2.70;;;;;;;-145.69;55.92;52226.53;5127526;27;20189;-79
2024/02/01 00:23:46;;;;;;;9.37;2.83;;;;;;;-145.69;56.10;52202.78;5136513;27;20536;-79
2024/02/01 00:26:12;;;;;;;5.40;2.47;;;;;;;-145.69;55.87;52188.91;5135834;27;20276;-79
2024/02/01 00:28:39;;;;;;;4.73;2.43;;;;;;;-145.69;56.50;52208.72;5135860;27;20196;-79
2024/02/01 00:31:05;;;;;;;9.40;3.20;;;;;;;-145.69;56.42;52234.47;5135840;27;20220;-80
2024/02/01 00:33:32;;;;;;;7.07;2.50;;;;;;;-145.69;57.00;52238.44;5135830;27;20197;-79
2024/02/01 00:35:58;;;;;;;6.93;2.87;;;;;;;-145.69;56.67;52186.94;5136240;27;20204;-79
2024/02/01 00:38:25;;;;;;;6.43;2.77;;;;;;;-145.69;56.45;52230.50;5135562;27;20203;-80
2024/02/01 00:40:53;;;;;;;6.10;2.13;;;;;;;-145.69;56.32;52171.09;5136094;27;20204;-79
2024/02/01 00:43:19;;;;;;;4.53;2.30;;;;;;;-145.69;56.31;52222.59;5135550;27;20204;-79
2024/02/01 00:45:45;;;;;;;9.77;2.80;;;;;;;-145.69;55.95;52210.72;5135385;27;20196;-79
2024/02/01 00:48:12;;;;;;;8.90;2.37;;;;;;;-145.69;55.59;52200.81;5135700;27;20221;-79
2024/02/01 00:50:38;;;;;;;8.63;2.27;;;;;;;-145.69;55.49;52210.72;5135043;27;20302;-79
2024/02/01 00:53:05;;;;;;;4.87;2.10;;;;;;;-145.69;55.24;52222.59;5135564;27;20204;-79
2024/02/01 00:55:31;;;;;;;5.07;2.33;;;;;;;-145.69;54.61;52198.81;5135070;27;20192;-80
2024/02/01 00:57:59;;;;;;;6.63;2.33;;;;;;;-145.69;54.76;52167.13;5135538;27;20225;-79
2024/02/01 01:00:26;;;;;;;6.60;2.10;;;;;;;-145.69;53.99;52194.88;5134988;27;20201;-78
2024/02/01 01:02:52;;;;;;;6.67;2.50;;;;;;;-145.69;53.89;52208.72;5134923;27;20201;-79
2024/02/01 01:05:19;;;;;;;3.77;2.13;;;;;;;-145.69;53.33;52206.75;5134673;27;20201;-79
2024/02/01 01:07:45;;;;;;;6.23;1.90;;;;;;;-145.69;53.98;52163.19;5134818;27;20212;-78
2024/02/01 01:10:12;;;;;;;5.47;1.90;;;;;;;-145.69;53.39;52202.78;5134533;27;20216;-79
2024/02/01 01:12:38;;;;;;;3.00;2.00;;;;;;;-145.69;53.43;52218.63;5135458;27;20196;-79
2024/02/01 01:15:07;;;;;;;4.67;2.43;;;;;;;-145.69;53.57;52194.88;5134699;27;20219;-78
2024/02/01 01:17:33;;;;;;;3.73;2.17;;;;;;;-145.69;53.09;52184.97;5134346;27;20203;-79
2024/02/01 01:20:03;;;;;;;6.20;2.20;;;;;;;-145.69;52.64;52192.88;5134595;27;20208;-79
2024/02/01 01:22:29;;;;;;;7.07;2.40;;;;;;;-145.69;52.76;52226.53;5135121;27;20215;-79
2024/02/01 01:24:56;;;;;;;6.63;2.27;;;;;;;-145.69;52.44;52206.75;5134981;27;20548;-78
2024/02/01 01:27:22;;;;;;;4.43;1.80;;;;;;;-145.69;51.33;52192.88;5134831;27;20196;-79
2024/02/01 01:29:49;;;;;;;3.53;1.73;;;;;;;-145.69;51.69;52208.72;5134820;27;20224;-79
2024/02/01 01:32:16;;;;;;;9.47;2.40;;;;;;;-145.69;51.38;52184.97;5133280;27;20210;-79
2024/02/01 01:34:43;;;;;;;5.63;1.93;;;;;;;-145.69;51.71;52165.16;5134975;27;20223;-79
2024/02/01 01:37:09;;;;;;;6.73;2.80;;;;;;;-145.69;51.37;52173.09;5134573;27;20204;-79
2024/02/01 01:39:36;;;;;;;4.97;1.97;;;;;;;-145.69;51.04;52200.81;5134653;27;20201;-80
2024/02/01 01:42:03;;;;;;;6.20;2.20;;;;;;;-145.69;50.80;52238.44;5134225;27;20488;-79
2024/02/01 01:44:29;;;;;;;3.73;2.17;;;;;;;-145.69;50.92;52190.91;5134790;27;20208;-79
2024/02/01 01:46:56;;;;;;;3.30;1.80;;;;;;;-145.69;51.38;52179.03;5134674;27;20591;-79
2024/02/01 01:49:24;;;;;;;5.40;2.00;;;;;;;-145.69;51.46;52165.16;5134816;27;20204;-80
2024/02/01 01:51:52;;;;;;;4.73;1.77;;;;;;;-145.69;51.48;52202.78;5133807;27;20636;-80
2024/02/01 01:54:21;;;;;;;9.33;2.30;;;;;;;-145.69;51.61;52214.66;5134345;27;20200;-81
2024/02/01 01:56:48;;;;;;;2.90;2.10;;;;;;;-145.69;51.91;52198.81;5134208;27;20197;-80
2024/02/01 01:59:17;;;;;;;3.53;1.87;;;;;;;-145.69;51.86;52200.81;5134603;27;20205;-80
2024/02/01 02:01:47;;;;;;;5.63;2.30;;;;;;;-145.69;51.60;52175.06;5134117;27;20638;-80
2024/02/01 02:04:15;;;;;;;4.20;1.80;;;;;;;-145.69;51.42;52169.13;5134481;27;20197;-79
2024/02/01 02:06:44;;;;;;;5.07;2.40;;;;;;;-145.69;51.27;52196.84;5133765;27;20220;-79
2024/02/01 02:09:13;;;;;;;8.87;2.30;;;;;;;-145.69;51.30;52194.88;5124720;27;20663;-79
2024/02/01 02:11:43;;;;;;;5.97;1.97;;;;;;;-145.69;51.44;52196.84;5113303;28;20220;-79
2024/02/01 02:14:10;;;;;;;5.40;2.17;;;;;;;-145.69;50.89;52224.56;5113870;28;20564;-80
2024/02/01 02:16:37;;;;;;;4.60;2.30;;;;;;;-145.69;51.15;52206.75;5113685;28;20560;-79
2024/02/01 02:19:09;;;;;;;5.90;1.97;;;;;;;-145.69;51.19;52190.91;5113750;28;20225;-80
2024/02/01 02:21:39;;;;;;;7.63;2.33;;;;;;;-145.69;50.39;52192.88;5127142;27;20208;-79
2024/02/01 02:24:07;;;;;;;5.67;2.60;;;;;;;-145.69;50.90;52202.78;5133931;27;20196;-79
2024/02/01 02:26:34;;;;;;;4.33;2.23;;;;;;;-145.69;50.64;52151.28;5134346;27;20204;-79
2024/02/01 02:29:02;;;;;;;6.27;2.03;;;;;;;-145.69;50.44;52194.88;5133892;27;20657;-80
2024/02/01 02:31:28;;;;;;;7.97;2.50;;;;;;;-145.69;50.62;52173.09;5133435;27;20569;-79
2024/02/01 02:33:55;;;;;;;6.13;2.30;;;;;;;-145.69;51.35;52210.72;5134088;27;20201;-80
2024/02/01 02:36:21;;;;;;;4.33;2.30;;;;;;;-145.69;50.68;52216.66;5133762;27;20196;-79
2024/02/01 02:38:48;;;;;;;6.83;2.67;;;;;;;-145.69;51.34;52214.66;5133356;27;20193;-80
2024/02/01 02:41:16;;;;;;;7.00;2.53;;;;;;;-145.69;51.70;52186.94;5133994;27;20364;-80
2024/02/01 02:43:42;;;;;;;5.47;2.40;;;;;;;-145.69;51.63;52184.97;5133702;27;20197;-79
2024/02/01 02:46:09;;;;;;;7.77;2.50;;;;;;;-145.69;51.73;52194.88;5133711;27;20196;-79
2024/02/01 02:48:37;;;;;;;6.33;2.57;;;;;;;-145.69;51.86;52234.47;5133644;27;20193;-79
2024/02/01 02:51:04;;;;;;;7.73;2.20;;;;;;;-145.69;52.40;52186.94;5132747;27;20236;-80
2024/02/01 02:53:30;;;;;;;7.23;2.77;;;;;;;-145.69;53.35;52208.72;5133361;27;20955;-80
2024/02/01 02:55:58;;;;;;;8.17;2.90;;;;;;;-145.69;53.83;52186.94;5133287;27;20188;-80
2024/02/01 02:58:26;;;;;;;11.37;3.53;;;;;;;-145.69;54.44;52202.78;5131068;27;20196;-80
2024/02/01 03:00:52;;;;;;;7.10;3.07;;;;;;;-145.69;54.45;52222.59;5132981;28;20193;-80
2024/02/01 03:03:19;;;;;;;9.00;3.37;;;;;;;-145.69;55.06;52179.03;5133502;27;20659;-79
2024/02/01 03:05:45;;;;;;;6.97;3.50;;;;;;;-145.69;55.04;52204.75;5133322;28;20765;-79
2024/02/01 03:08:12;;;;;;;5.80;3.20;;;;;;;-145.69;56.09;52212.69;5133218;27;20205;-80
2024/02/01 03:10:38;;;;;;;8.10;3.57;;;;;;;-145.69;55.92;52190.91;5133409;28;20224;-79
2024/02/01 03:13:09;;;;;;;7.17;3.57;;;;;;;-145.69;56.67;52186.94;5133437;28;20204;-80
2024/02/01 03:15:37;;;;;;;11.10;3.87;;;;;;;-145.69;56.91;52200.81;5133416;27;20208;-79
2024/02/01 03:18:05;;;;;;;7.97;3.27;;;;;;;-145.69;57.05;52186.94;5134110;27;20197;-80
2024/02/01 03:20:32;;;;;;;10.67;3.87;;;;;;;-145.69;56.74;52214.66;5137539;27;20548;-78
2024/02/01 03:22:59;;;;;;;8.53;3.47;;;;;;;-145.69;56.60;52200.81;5137649;27;20269;-79
2024/02/01 03:25:29;;;;;;;6.43;3.73;;;;;;;-145.69;56.73;52252.28;5137558;27;20226;-79
2024/02/01 03:28:00;;;;;;;10.80;3.77;;;;;;;-145.69;56.83;52198.81;5136807;27;20188;-79
2024/02/01 03:30:27;;;;;;;11.13;4.17;;;;;;;-145.69;56.63;52194.88;5137106;27;20211;-78
2024/02/01 03:32:55;;;;;;;5.10;3.00;;;;;;;-145.69;56.40;52192.88;5136885;27;20348;-78
2024/02/01 03:35:21;;;;;;;14.07;4.10;;;;;;;-145.69;56.72;52169.13;5136233;27;20207;-79
2024/02/01 03:37:49;;;;;;;7.50;3.73;;;;;;;-145.69;56.67;52292.03;5137319;27;20193;-79
2024/02/01 03:40:18;;;;;;;10.17;4.20;;;;;;;-145.69;56.69;52192.88;5137070;27;20201;-79
2024/02/01 03:42:45;;;;;;;6.87;3.83;;;;;;;-145.69;57.06;52188.91;5137271;27;20204;-79
2024/02/01 03:45:12;;;;;;;9.20;4.13;;;;;;;-145.69;56.80;52179.03;5136786;27;20205;-78
2024/02/01 03:47:38;;;;;;;9.87;4.30;;;;;;;-145.69;56.71;52236.44;5137022;27;20722;-79
2024/02/01 03:50:08;;;;;;;9.27;4.10;;;;;;;-145.69;57.25;52186.94;5136439;27;20220;-78
2024/02/01 03:52:37;;;;;;;9.53;3.80;;;;;;;-145.69;57.17;52190.91;5137110;27;20254;-78
2024/02/01 03:55:04;;;;;;;10.07;4.23;;;;;;;-145.69;57.11;52246.34;5137035;27;20207;-79
2024/02/01 03:57:31;;;;;;;10.30;3.50;;;;;;;-145.69;57.54;52242.38;5136571;27;20219;-78
2024/02/01 03:59:58;;;;;;;10.83;4.50;;;;;;;-145.69;57.76;52236.44;5136709;27;20228;-78
2024/02/01 04:02:25;;;;;;;8.33;4.33;;;;;;;-145.69;57.45;52242.38;5136461;27;20407;-78
2024/02/01 04:04:51;;;;;;;7.53;3.90;;;;;;;-145.69;58.16;52206.75;5136415;27;20280;-80
2024/02/01 04:07:20;;;;;;;7.90;4.50;;;;;;;-145.69;58.58;52230.50;5133229;27;20204;-78
2024/02/01 04:09:47;;;;;;;11.07;4.83;;;;;;;-145.69;58.86;52210.72;5119882;27;20229;-79
2024/02/01 04:12:14;;;;;;;9.40;4.73;;;;;;;-145.69;58.85;52218.63;5115725;28;20230;-80
2024/02/01 04:14:40;;;;;;;16.37;5.40;;;;;;;-145.69;58.68;52234.47;5116334;28;20204;-80
2024/02/01 04:17:07;;;;;;;10.80;4.40;;;;;;;-145.69;58.61;52220.59;5115874;28;20672;-79
2024/02/01 04:19:33;;;;;;;11.30;4.27;;;;;;;-145.69;58.79;52200.81;5115530;28;20201;-79
2024/02/01 04:22:00;;;;;;;9.20;4.80;;;;;;;-145.69;59.10;52192.88;5115652;28;20563;-79
2024/02/01 04:24:28;;;;;;;10.03;4.43;;;;;;;-145.69;59.55;52220.59;5115587;28;20197;-80
2024/02/01 04:26:55;;;;;;;8.87;4.17;;;;;;;-145.69;59.30;52236.44;5115612;28;20193;-79
2024/02/01 04:29:22;;;;;;;8.53;4.37;;;;;;;-145.69;59.33;52220.59;5134096;27;20212;-79
2024/02/01 04:31:48;;;;;;;13.77;4.47;;;;;;;-145.69;59.21;52230.50;5135816;27;20578;-79
2024/02/01 04:34:15;;;;;;;6.90;4.13;;;;;;;-145.69;59.23;52218.63;5135802;27;20200;-79
2024/02/01 04:36:41;;;;;;;9.67;4.40;;;;;;;-145.69;59.39;52216.66;5136322;27;20268;-79
2024/02/01 04:39:08;;;;;;;13.70;4.67;;;;;;;-145.69;59.07;52216.66;5135754;27;20197;-79
2024/02/01 04:41:38;;;;;;;11.93;4.60;;;;;;;-145.69;58.70;52260.22;5135283;27;20242;-79
2024/02/01 04:44:07;;;;;;;8.17;4.30;;;;;;;-145.69;59.44;52258.22;5136018;27;20204;-79
2024/02/01 04:46:34;;;;;;;8.73;5.07;;;;;;;-145.69;59.33;52250.31;5136001;27;20224;-78
2024/02/01 04:49:02;;;;;;;9.13;4.57;;;;;;;-145.69;58.81;52220.59;5135966;27;20207;-78
2024/02/01 04:51:31;;;;;;;8.23;4.20;;;;;;;-145.69;58.80;52232.50;5135193;27;20673;-79
2024/02/01 04:53:58;;;;;;;13.53;5.10;;;;;;;-145.69;58.68;52238.44;5135924;27;20216;-79
2024/02/01 04:56:24;;;;;;;10.20;3.90;;;;;;;-145.69;58.66;52202.78;5135373;27;20626;-79
2024/02/01 04:58:52;;;;;;;9.80;4.63;;;;;;;-145.69;57.97;52222.59;5135193;27;20189;-78
2024/02/01 05:01:19;;;;;;;10.93;4.80;;;;;;;-145.69;58.28;52244.38;5135251;27;20547;-78
2024/02/01 05:03:45;;;;;;;9.83;4.60;;;;;;;-145.69;57.55;52250.31;5135318;27;20438;-79
2024/02/01 05:06:12;;;;;;;13.63;5.20;;;;;;;-145.69;56.92;52212.69;5135382;27;20197;-79
2024/02/01 05:08:38;;;;;;;12.43;4.37;;;;;;;-145.69;56.32;52182.97;5135442;27;20200;-78
2024/02/01 05:11:05;;;;;;;9.13;4.13;;;;;;;-145.69;56.17;52216.66;5134133;27;20231;-78
2024/02/01 05:13:33;;;;;;;6.63;3.57;;;;;;;-145.69;56.37;52214.66;5135167;27;20296;-78
2024/02/01 05:16:02;;;;;;;15.07;3.53;;;;;;;-145.69;55.87;52230.50;5135379;27;20563;-79
2024/02/01 05:18:28;;;;;;;5.53;3.27;;;;;;;-145.69;56.25;52240.41;5135183;27;20288;-79
2024/02/01 05:20:55;;;;;;;5.23;3.33;;;;;;;-145.69;56.08;52204.75;5135141;27;20675;-80
2024/02/01 05:23:21;;;;;;;7.23;3.77;;;;;;;-145.69;55.77;52212.69;5134846;27;20219;-79
2024/02/01 05:25:50;;;;;;;11.20;3.83;;;;;;;-145.69;55.04;52206.75;5134944;27;20205;-79
2024/02/01 05:28:18;;;;;;;10.83;4.77;;;;;;;-145.69;54.19;52212.69;5135209;27;20192;-79
2024/02/01 05:30:44;;;;;;;8.43;4.23;;;;;;;-145.69;54.95;52192.88;5134655;27;20246;-78
2024/02/01 05:33:15;;;;;;;10.60;4.33;;;;;;;-145.69;54.82;52202.78;5134796;27;20229;-79
2024/02/01 05:35:42;;;;;;;6.47;3.80;;;;;;;-145.69;54.27;52246.34;5134676;27;20698;-78
2024/02/01 05:38:08;;;;;;;7.40;3.80;;;;;;;-145.69;54.35;52198.81;5134961;27;20201;-80
2024/02/01 05:40:37;;;;;;;5.63;3.50;;;;;;;-145.69;53.86;52228.53;5134559;27;20674;-78
2024/02/01 05:43:04;;;;;;;8.17;3.63;;;;;;;-145.69;53.26;52214.66;5132965;27;20287;-78
2024/02/01 05:45:31;;;;;;;11.97;3.60;;;;;;;-145.69;53.10;52246.34;5134878;27;20265;-79
2024/02/01 05:48:01;;;;;;;10.03;3.90;;;;;;;-145.69;52.69;52177.03;5134543;27;20201;-78
2024/02/01 05:50:29;;;;;;;8.95;4.57;;;;;;;-145.69;52.72;52214.66;5133371;27;20459;-79
2024/02/01 05:52:55;;;;;;;7.23;4.00;;;;;;;-145.69;52.35;52218.63;5134514;27;20256;-79
2024/02/01 05:55:22;;;;;;;10.00;4.17;;;;;;;-145.69;52.41;52220.59;5134632;27;20203;-79
2024/02/01 05:57:48;;;;;;;7.57;4.00;;;;;;;-145.69;52.04;52188.91;5134446;27;20232;-79
2024/02/01 06:00:21;;;;;;;11.27;3.90;;;;;;;-145.69;52.29;52171.09;5134404;27;20197;-79
2024/02/01 06:02:49;;;;;;;9.67;3.93;;;;;;;-145.69;52.26;52186.94;5134165;27;20236;-78
2024/02/01 06:05:15;;;;;;;7.37;3.83;;;;;;;-145.69;52.00;52181.00;5133920;27;20673;-78
2024/02/01 06:07:43;;;;;;;6.13;4.00;;;;;;;-145.69;51.35;52204.75;5134050;27;20197;-79
2024/02/01 06:10:11;;;;;;;6.73;3.40;;;;;;;-145.69;51.23;52188.91;5133972;27;20681;-78
2024/02/01 06:12:38;;;;;;;8.97;3.30;;;;;;;-145.69;51.30;52196.84;5133572;27;20227;-79
2024/02/01 06:15:06;;;;;;;9.83;4.07;;;;;;;-145.69;51.38;52182.97;5125539;27;20201;-79
2024/02/01 06:17:33;;;;;;;11.20;5.10;;;;;;;-145.69;51.66;52206.75;5113097;28;20202;-79
2024/02/01 06:20:00;;;;;;;16.90;5.73;;;;;;;-145.69;51.68;52212.69;5113489;28;20663;-81
2024/02/01 06:22:27;;;;;;;9.97;5.30;;;;;;;-145.69;51.89;52226.53;5113470;28;20203;-78
2024/02/01 06:24:55;;;;;;;9.53;4.60;;;;;;;-145.69;51.96;52218.63;5112922;28;20201;-78
2024/02/01 06:27:22;;;;;;;6.33;3.60;;;;;;;-145.69;52.26;52194.88;5113039;28;20198;-78
2024/02/01 06:29:48;;;;;;;5.90;3.60;;;;;;;-145.69;52.18;52226.53;5113382;28;20205;-79
2024/02/01 06:32:19;;;;;;;7.23;3.73;;;;;;;-145.69;52.11;52198.81;5113427;28;20229;-79
2024/02/01 06:34:53;;;;;;;6.43;3.93;;;;;;;-145.69;52.59;52212.69;5123814;27;20559;-78
2024/02/01 06:37:21;;;;;;;5.33;3.23;;;;;;;-145.69;52.46;52194.88;5133800;27;20192;-79
2024/02/01 06:40:10;;;;;;;10.53;3.80;;;;;;;-145.69;52.22;52208.72;5133519;27;20540;-79
2024/02/01 06:42:54;;;;;;;7.10;3.70;;;;;;;-145.69;52.01;52208.72;5132973;27;20826;-79
2024/02/01 06:45:28;;;;;;;6.47;3.40;;;;;;;-145.69;51.87;52190.91;5133413;27;20227;-78
2024/02/01 06:48:04;;;;;;;14.73;3.70;;;;;;;-145.69;52.12;52177.03;5133533;27;20564;-78
2024/02/01 06:50:46;;;;;;;8.27;3.50;;;;;;;-145.69;51.35;52206.75;5133451;27;20315;-78
2024/02/01 06:53:20;;;;;;;7.73;3.63;;;;;;;-145.69;51.46;52198.81;5133419;27;20228;-78
2024/02/01 06:55:54;;;;;;;6.47;4.07;;;;;;;-145.69;51.30;52200.81;5133552;27;20201;-79
2024/02/01 06:58:38;;;;;;;7.50;3.90;;;;;;;-145.69;51.30;52208.72;5133300;27;20200;-79
2024/02/01 07:01:24;;;;;;;7.87;3.40;;;;;;;-145.69;50.92;52188.91;5112889;28;20197;-79
2024/02/01 07:03:57;;;;;;;10.43;3.93;;;;;;;-145.69;51.26;52214.66;5113968;28;20201;-79
2024/02/01 07:06:35;;;;;;;8.70;3.13;;;;;;;-145.69;51.13;52194.88;5133320;27;20210;-79
2024/02/01 07:09:17;;;;;;;5.00;3.00;;;;;;;-145.69;51.02;52186.94;5133332;27;20208;-79
2024/02/01 07:11:59;;;;;;;7.37;3.10;;;;;;;-145.69;51.24;52208.72;5132310;28;20709;-80
2024/02/01 07:14:35;;;;;;;10.13;3.40;;;;;;;-145.69;51.42;52194.88;5133102;27;20192;-79
2024/02/01 07:17:16;;;;;;;6.07;3.30;;;;;;;-145.69;51.44;52224.56;5133500;27;20283;-80
2024/02/01 07:19:52;;;;;;;6.07;3.00;;;;;;;-145.69;51.81;52240.41;5132954;27;20197;-79
2024/02/01 07:22:35;;;;;;;5.50;3.27;;;;;;;-145.69;51.20;52192.88;5133423;27;20202;-79
2024/02/01 07:25:10;;;;;;;7.43;3.50;;;;;;;-145.69;51.08;52179.03;5133455;27;20196;-79
2024/02/01 07:57:55;;;;;;;8.43;4.20;;;;;;;-145.69;53.63;52228.53;5132422;27;20280;-79
2024/02/01 08:00:31;;;;;;;7.43;3.93;;;;;;;-145.69;56.74;52226.53;5133062;27;20219;-78
2024/02/01 08:03:03;;;;;;;11.77;4.40;;;;;;;-145.69;56.71;52194.88;5132679;27;20208;-78
2024/02/01 08:08:15;;;;;;;30.27;9.83;;;;;;;-145.69;57.77;52214.66;5136638;27;20266;-79
2024/02/01 08:10:42;;;;;;;23.77;8.17;;;;;;;-145.69;58.79;52186.94;5136373;27;20196;-78
2024/02/01 08:13:12;;;;;;;15.33;6.40;;;;;;;-145.69;58.93;52200.81;5135920;27;20217;-78
2024/02/01 08:15:41;;;;;;;9.77;4.87;;;;;;;-145.69;59.33;52214.66;5136237;27;20207;-78
2024/02/01 08:18:09;;;;;;;12.13;5.10;;;;;;;-145.69;59.83;52224.56;5136221;27;20610;-79
2024/02/01 08:20:36;;;;;;;8.33;4.37;;;;;;;-145.69;59.95;52236.44;5136016;27;20240;-77
2024/02/01 08:23:03;;;;;;;9.40;4.47;;;;;;;-145.69;59.01;52218.63;5134225;27;20283;-80
2024/02/01 08:25:31;;;;;;;10.40;4.50;;;;;;;-145.69;59.88;52240.41;5136148;27;20220;-81
2024/02/01 08:27:58;;;;;;;11.00;4.53;;;;;;;-145.69;60.34;52220.59;5136109;27;20671;-80
2024/02/01 08:30:27;;;;;;;11.83;4.63;;;;;;;-145.69;60.15;52186.94;5136280;27;20201;-79
2024/02/01 08:32:57;;;;;;;9.87;4.43;;;;;;;-145.69;60.19;52218.63;5135359;27;20224;-79
2024/02/01 08:35:24;;;;;;;10.83;4.80;;;;;;;-145.69;60.39;52190.91;5136201;27;20284;-80
2024/02/01 08:37:55;;;;;;;9.57;4.27;;;;;;;-145.69;60.70;52206.75;5136216;27;20292;-79
2024/02/01 08:40:22;;;;;;;14.43;4.63;;;;;;;-145.69;60.52;52218.63;5135694;27;20193;-79
2024/02/01 08:42:50;;;;;;;10.13;4.80;;;;;;;-145.69;61.01;52206.75;5135343;27;20192;-80
2024/02/01 08:45:18;;;;;;;11.60;4.93;;;;;;;-145.69;60.36;52228.53;5135795;27;20201;-79
2024/02/01 08:47:45;;;;;;;9.30;4.43;;;;;;;-145.69;60.75;52210.72;5135872;27;20204;-79
2024/02/01 08:50:12;;;;;;;11.57;4.77;;;;;;;-145.69;60.54;52258.22;5135502;27;20264;-79
2024/02/01 08:52:45;;;;;;;12.13;5.07;;;;;;;-145.69;60.43;52202.78;5135275;27;20223;-79
2024/02/01 08:55:13;;;;;;;9.37;3.67;;;;;;;-145.69;59.99;52218.63;5136112;27;20200;-79
2024/02/01 08:57:40;;;;;;;8.23;4.47;;;;;;;-145.69;60.59;52234.47;5135676;27;20189;-79
2024/02/01 09:00:21;;;;;;;10.73;3.93;;;;;;;-145.69;60.81;52242.38;5135590;27;20287;-79
2024/02/01 09:03:02;;;;;;;9.37;4.33;;;;;;;-145.69;60.76;52214.66;5136112;27;20200;-78
2024/02/01 09:05:29;;;;;;;10.47;4.20;;;;;;;-145.69;60.20;52258.22;5135658;27;20196;-79
2024/02/01 09:07:58;;;;;;;6.20;3.50;;;;;;;-145.69;60.39;52208.72;5134991;27;20204;-78
2024/02/01 09:10:24;;;;;;;6.77;3.07;;;;;;;-145.69;60.81;52250.31;5134549;27;20822;-79
2024/02/01 09:12:51;;;;;;;8.73;3.37;;;;;;;-145.69;60.36;52242.38;5134450;27;20223;-79
2024/02/01 09:15:17;;;;;;;4.07;2.80;;;;;;;-145.69;60.04;52240.41;5134896;27;20200;-79
2024/02/01 09:17:46;;;;;;;6.03;3.00;;;;;;;-145.69;60.41;52226.53;5134498;27;20189;-79
2024/02/01 09:20:18;;;;;;;5.57;2.97;;;;;;;-145.69;59.69;52232.50;5135073;27;20227;-79
2024/02/01 09:22:44;;;;;;;7.47;2.50;;;;;;;-145.69;59.94;52220.59;5134734;27;20197;-78
2024/02/01 09:25:12;;;;;;;7.07;2.83;;;;;;;-145.69;59.66;52226.53;5135344;27;20200;-78
2024/02/01 09:27:40;;;;;;;4.37;2.23;;;;;;;-145.69;58.67;52208.72;5134813;27;20197;-79
2024/02/01 09:30:09;;;;;;;5.70;2.43;;;;;;;-145.69;58.39;52236.44;5134750;27;20296;-80
2024/02/01 09:32:37;;;;;;;4.37;2.17;;;;;;;-145.69;57.86;52202.78;5135039;27;20313;-79
2024/02/01 09:35:04;;;;;;;9.80;2.40;;;;;;;-145.69;58.04;52208.72;5134901;27;20199;-79
2024/02/01 09:37:31;;;;;;;4.23;2.17;;;;;;;-145.69;57.78;52258.22;5134898;27;20248;-79
2024/02/01 09:40:00;;;;;;;3.50;2.17;;;;;;;-145.69;58.30;52234.47;5134620;27;20713;-80
2024/02/01 09:42:28;;;;;;;4.13;2.33;;;;;;;-145.69;58.02;52179.03;5133766;27;20712;-80
2024/02/01 09:44:56;;;;;;;7.73;3.30;;;;;;;-145.69;57.61;52224.56;5134385;27;20189;-79
2024/02/01 09:47:24;;;;;;;4.47;2.30;;;;;;;-145.69;57.25;52246.34;5134455;27;20196;-79
2024/02/01 09:49:54;;;;;;;7.03;3.73;;;;;;;-145.69;57.78;52216.66;5134266;27;20224;-80
2024/02/01 09:52:20;;;;;;;5.67;1.80;;;;;;;-145.69;57.40;52228.53;5134367;27;20216;-79
2024/02/01 09:54:47;;;;;;;3.43;1.60;;;;;;;-145.69;57.56;52218.63;5134583;27;20203;-79
2024/02/01 09:57:15;;;;;;;3.03;1.60;;;;;;;-145.69;57.43;52254.28;5133914;27;20656;-80
2024/02/01 09:59:44;;;;;;;3.80;1.80;;;;;;;-145.69;57.11;52238.44;5134246;27;20203;-79
2024/02/01 10:02:11;;;;;;;1.97;1.60;;;;;;;-145.69;56.51;52220.59;5134466;27;20197;-79
2024/02/01 10:04:39;;;;;;;2.57;1.77;;;;;;;-145.69;56.57;52208.72;5134369;27;20205;-79
2024/02/01 10:07:06;;;;;;;1.70;1.40;;;;;;;-145.69;56.65;52186.94;5134315;27;20613;-80
2024/02/01 10:09:32;;;;;;;4.33;1.40;;;;;;;-145.69;56.32;52234.47;5134272;27;20563;-80
2024/02/01 10:11:59;;;;;;;4.27;1.47;;;;;;;-145.69;55.83;52198.81;5133965;27;20317;-79
2024/02/01 10:14:34;;;;;;;1.90;1.70;;;;;;;-145.69;56.07;52212.69;5133930;27;20224;-79
2024/02/01 10:17:05;;;;;;;1.10;1.00;;;;;;;-145.69;55.25;52179.03;5134175;27;20229;-79
2024/02/01 10:19:31;;;;;;;1.90;1.37;;;;;;;-145.69;55.79;52236.44;5134287;27;20197;-79
2024/02/01 10:22:05;;;;;;;1.80;1.10;;;;;;;-145.69;55.07;52262.19;5134182;27;20197;-80
2024/02/01 10:24:44;;;;;;;1.73;1.10;;;;;;;-145.69;55.94;52232.50;5131264;27;20199;-79
2024/02/01 10:27:11;;;;;;;1.47;1.23;;;;;;;-145.69;55.69;52232.50;5127218;27;20189;-80
2024/02/01 10:29:40;;;;;;;2.20;1.60;;;;;;;-145.69;55.63;52230.50;5133515;27;20196;-79
2024/02/01 10:32:12;;;;;;;1.53;1.13;;;;;;;-145.69;56.12;52206.75;5133521;27;20204;-79
2024/02/01 10:34:41;;;;;;;2.37;1.40;;;;;;;-145.69;56.07;52206.75;5133991;27;20628;-79
2024/02/01 10:37:12;;;;;;;3.60;1.03;;;;;;;-145.69;56.01;52184.97;5133739;27;20201;-80
2024/02/01 10:39:44;;;;;;;3.10;1.70;;;;;;;-145.69;56.13;52159.22;5133704;27;20220;-80
2024/02/01 10:42:16;;;;;;;1.50;1.10;;;;;;;-145.69;56.07;52198.81;5133194;27;20287;-80
2024/02/01 10:44:45;;;;;;;1.97;0.87;;;;;;;-145.69;56.27;52198.81;5133472;27;20212;-79
2024/02/01 10:47:15;;;;;;;1.40;1.17;;;;;;;-145.69;56.12;52179.03;5133697;27;20197;-80
2024/02/01 10:49:44;;;;;;;1.63;1.30;;;;;;;-145.69;56.57;52182.97;5133574;27;20265;-80
2024/02/01 10:52:13;;;;;;;3.90;1.20;;;;;;;-145.69;56.55;52181.00;5133511;27;20204;-80
2024/02/01 10:54:41;;;;;;;3.00;1.20;;;;;;;-145.69;57.13;52218.63;5133624;27;20228;-80
2024/02/01 10:57:10;;;;;;;1.30;1.10;;;;;;;-145.69;56.52;52206.75;5133704;27;20201;-80
2024/02/01 10:59:38;;;;;;;1.80;1.10;;;;;;;-145.69;56.32;52204.75;5133486;27;20299;-81
2024/02/01 11:02:06;;;;;;;1.47;1.20;;;;;;;-145.69;56.88;52220.59;5133017;28;20193;-79
2024/02/01 11:04:38;;;;;;;1.43;1.17;;;;;;;-145.69;56.59;52222.59;5133279;27;20212;-79
2024/02/01 11:07:05;;;;;;;3.40;1.20;;;;;;;-145.69;57.35;52202.78;5133327;27;20189;-79
2024/02/01 11:09:32;;;;;;;1.23;1.10;;;;;;;-145.69;57.60;52240.41;5133247;28;20673;-80
2024/02/01 11:11:59;;;;;;;1.60;1.30;;;;;;;-145.69;57.10;52230.50;5132979;28;20669;-80
2024/02/01 11:14:26;;;;;;;1.53;1.30;;;;;;;-145.69;57.25;52236.44;5132954;27;20220;-79
2024/02/01 11:16:56;;;;;;;1.10;1.00;;;;;;;-145.69;57.55;52218.63;5133410;28;20292;-78
2024/02/01 11:19:24;;;;;;;2.47;1.00;;;;;;;-145.69;57.91;52224.56;5133208;27;20200;-79
2024/02/01 11:21:54;;;;;;;4.57;1.97;;;;;;;-145.69;58.08;52190.91;5133307;27;20215;-81
2024/02/01 11:24:22;;;;;;;6.57;3.73;;;;;;;-145.69;58.11;52206.75;5133502;27;20208;-79
2024/02/01 11:26:54;;;;;;;3.90;2.03;;;;;;;-145.69;57.73;52198.81;5133548;27;20212;-79
2024/02/01 11:29:24;;;;;;;1.93;1.40;;;;;;;-145.69;58.40;52230.50;5133541;27;20259;-79
2024/02/01 11:31:56;;;;;;;2.00;1.00;;;;;;;-145.69;58.20;52250.31;5133249;27;20220;-80
2024/02/01 11:34:23;;;;;;;3.90;1.73;;;;;;;-145.69;58.41;52206.75;5132805;28;20280;-79
2024/02/01 11:36:49;;;;;;;2.53;1.43;;;;;;;-145.69;58.84;52238.44;5133238;28;20211;-79
2024/02/01 11:39:17;;;;;;;10.20;5.27;;;;;;;-145.69;58.39;52216.66;5133570;27;20204;-79
2024/02/01 11:41:46;;;;;;;4.07;3.00;;;;;;;-145.69;57.95;52206.75;5137097;27;20622;-79
2024/02/01 11:44:13;;;;;;;4.57;2.30;;;;;;;-145.69;58.03;52204.75;5136667;27;20280;-80
2024/02/01 11:46:45;;;;;;;1.70;1.40;;;;;;;-145.69;57.99;52204.75;5136622;27;20189;-81
2024/02/01 11:49:16;;;;;;;2.73;1.30;;;;;;;-145.69;58.23;52212.69;5136646;27;20593;-80
2024/02/01 11:51:43;;;;;;;1.27;1.07;;;;;;;-145.69;57.98;52218.63;5136647;27;20233;-80
2024/02/01 11:54:10;;;;;;;2.30;1.43;;;;;;;-145.69;57.58;52216.66;5136837;27;20607;-80